createdAt,value
2017-05-12T01:19:09.235Z,7.25
2017-05-12T01:21:38.191Z,7.82
2017-05-12T01:24:07.124Z,8.25
2017-05-12T01:26:36.059Z,7.90
2017-05-12T01:29:05.737Z,7.73
2017-05-12T01:31:34.646Z,8.47
2017-05-12T01:34:04.312Z,7.67
2017-05-12T01:36:33.269Z,8.13
2017-05-12T01:39:02.182Z,8.85
2017-05-12T01:41:31.118Z,8.03
2017-05-12T01:44:00.077Z,8.37
2017-05-12T01:46:29.014Z,9.38
2017-05-12T01:48:57.927Z,8.80
2017-05-12T01:51:26.875Z,8.52
2017-05-12T01:53:55.810Z,9.50
2017-05-12T01:56:25.481Z,8.95
2017-05-12T01:58:54.423Z,9.23
2017-05-12T02:01:23.338Z,9.33
2017-05-12T02:03:52.269Z,9.20
2017-05-12T02:06:21.226Z,10.37
2017-05-12T02:08:50.163Z,9.53
2017-05-12T02:11:19.083Z,9.12
2017-05-12T02:13:48.054Z,10.18
2017-05-12T02:16:17.729Z,10.22
2017-05-12T02:18:46.643Z,9.68
2017-05-12T02:21:15.596Z,10.15
2017-05-12T02:23:44.543Z,11.15
2017-05-12T02:26:14.203Z,11.58
2017-05-12T02:28:43.151Z,11.82
2017-05-12T02:31:12.839Z,12.07
2017-05-12T02:33:41.757Z,11.22
2017-05-12T02:36:11.439Z,10.75
2017-05-12T02:38:40.398Z,11.83
2017-05-12T02:41:09.338Z,12.55
2017-05-12T02:43:39.021Z,12.45
2017-05-12T02:46:07.952Z,12.47
2017-05-12T02:48:37.626Z,11.53
2017-05-12T02:51:06.580Z,11.93
2017-05-12T02:53:35.512Z,12.82
2017-05-12T02:56:04.426Z,13.50
2017-05-12T02:58:33.370Z,13.37
2017-05-12T03:01:02.336Z,14.18
2017-05-12T03:03:31.259Z,15.35
2017-05-12T03:06:00.208Z,13.85
2017-05-12T03:08:29.863Z,14.13
2017-05-12T03:10:58.797Z,13.80
2017-05-12T03:13:27.742Z,15.20
2017-05-12T03:15:56.678Z,14.72
2017-05-12T03:18:25.614Z,15.13
2017-05-12T03:20:54.558Z,15.67
2017-05-12T03:23:23.470Z,15.67
2017-05-12T03:25:53.144Z,16.45
2017-05-12T03:28:22.086Z,14.85
2017-05-12T03:30:51.026Z,15.15
2017-05-12T03:33:19.939Z,15.80
2017-05-12T03:35:48.902Z,16.37
2017-05-12T03:38:17.816Z,15.15
2017-05-12T03:40:46.754Z,15.98
2017-05-12T03:43:15.717Z,16.58
2017-05-12T03:45:44.649Z,17.10
2017-05-12T03:48:13.590Z,16.75
2017-05-12T03:50:42.988Z,15.67
2017-05-12T03:53:11.937Z,15.02
2017-05-12T03:55:40.876Z,15.85
2017-05-12T03:58:09.828Z,16.68
2017-05-12T04:00:38.750Z,17.28
2017-05-12T04:03:07.695Z,17.73
2017-05-12T04:05:36.655Z,18.10
2017-05-12T04:08:05.592Z,17.57
2017-05-12T04:10:34.529Z,16.70
2017-05-12T04:13:03.496Z,15.83
2017-05-12T04:15:32.428Z,17.27
2017-05-12T04:18:01.372Z,16.82
2017-05-12T04:20:30.331Z,16.80
2017-05-12T04:23:00.013Z,18.05
2017-05-12T04:25:29.001Z,16.73
2017-05-12T04:27:57.972Z,16.35
2017-05-12T04:30:26.911Z,17.82
2017-05-12T04:32:56.574Z,17.23
2017-05-12T04:35:25.547Z,17.68
2017-05-12T04:37:54.474Z,17.28
2017-05-12T04:40:23.394Z,18.58
2017-05-12T04:42:53.083Z,17.27
2017-05-12T04:45:22.002Z,18.58
2017-05-12T04:47:51.708Z,18.35
2017-05-12T04:50:21.420Z,17.40
2017-05-12T04:52:51.082Z,17.72
2017-05-12T04:55:20.001Z,19.78
2017-05-12T04:57:48.968Z,18.75
2017-05-12T05:00:17.901Z,18.48
2017-05-12T05:02:46.846Z,18.82
2017-05-12T05:05:15.781Z,19.17
2017-05-12T05:07:44.702Z,18.45
2017-05-12T05:10:14.389Z,19.68
2017-05-12T05:12:43.307Z,19.60
2017-05-12T05:15:12.992Z,19.00
2017-05-12T05:17:42.704Z,20.22
2017-05-12T05:20:11.622Z,20.88
2017-05-12T05:22:41.319Z,19.27
2017-05-12T05:25:11.001Z,18.88
2017-05-12T05:27:39.945Z,20.02
2017-05-12T05:30:08.905Z,20.72
2017-05-12T05:32:37.827Z,21.63
2017-05-12T05:35:06.777Z,19.97
2017-05-12T05:37:35.698Z,21.27
2017-05-12T05:40:05.358Z,20.55
2017-05-12T05:42:34.309Z,19.53
2017-05-12T05:45:03.989Z,20.87
2017-05-12T05:47:33.197Z,22.50
2017-05-12T05:50:02.168Z,20.68
2017-05-12T05:52:31.106Z,20.63
2017-05-12T05:55:00.065Z,20.93
2017-05-12T05:57:28.999Z,20.23
2017-05-12T05:59:57.951Z,21.22
2017-05-12T06:02:26.892Z,21.32
2017-05-12T06:04:55.814Z,22.17
2017-05-12T06:07:24.750Z,22.30
2017-05-12T06:09:54.412Z,21.70
2017-05-12T06:12:23.370Z,21.38
2017-05-12T06:14:52.288Z,22.02
2017-05-12T06:17:21.213Z,24.37
2017-05-12T06:19:50.168Z,23.02
2017-05-12T06:22:19.094Z,21.95
2017-05-12T06:24:48.071Z,21.57
2017-05-12T06:27:17.136Z,22.63
2017-05-12T06:29:46.094Z,21.92
2017-05-12T06:32:15.060Z,23.33
2017-05-12T06:34:43.982Z,22.07
2017-05-12T06:37:13.768Z,23.27
2017-05-12T06:39:42.696Z,21.53
2017-05-12T08:18:49.012Z,28.13
2017-05-12T08:21:17.950Z,27.38
2017-05-12T08:23:46.886Z,27.60
2017-05-12T09:20:47.720Z,26.20
2017-05-12T09:23:16.645Z,24.92
2017-05-12T09:25:45.579Z,24.82
2017-05-12T09:28:14.522Z,26.10
2017-05-12T09:30:43.499Z,25.68
2017-05-12T09:33:13.162Z,27.20
2017-05-12T09:35:42.109Z,26.42
2017-05-12T09:38:11.790Z,27.98
2017-05-12T09:40:40.710Z,26.02
2017-05-12T09:43:10.417Z,25.67
2017-05-12T09:45:40.093Z,26.48
2017-05-12T09:48:09.038Z,26.73
2017-05-12T09:50:37.971Z,27.00
2017-05-12T09:58:03.850Z,24.73
2017-05-12T10:00:32.770Z,25.80
2017-05-12T10:03:01.713Z,24.00
2017-05-12T10:05:30.687Z,24.30
2017-05-12T10:10:28.123Z,21.80
2017-05-12T10:32:45.672Z,20.87
2017-05-12T10:47:37.021Z,19.96
2017-05-12T10:52:34.738Z,20.22
2017-05-12T10:55:03.682Z,20.00
2017-05-12T10:57:32.647Z,20.52
2017-05-12T11:00:02.301Z,20.62
2017-05-12T11:17:24.278Z,23.00
2017-05-12T11:19:53.218Z,25.53
2017-05-12T11:22:22.166Z,23.87
2017-05-12T11:44:39.732Z,24.58
2017-05-12T11:47:08.702Z,22.82
2017-05-12T11:49:37.621Z,23.70
2017-05-12T11:52:07.286Z,22.93
2017-05-12T11:54:36.250Z,23.07
2017-05-12T11:57:05.172Z,22.33
2017-05-12T11:59:34.129Z,22.27
2017-05-12T12:16:54.571Z,22.30
2017-05-12T14:25:44.709Z,18.67
2017-05-12T14:28:13.680Z,17.23
2017-05-12T14:30:43.361Z,17.50
2017-05-12T17:31:34.703Z,15.90
2017-05-12T17:41:29.854Z,18.85
2017-05-12T17:43:58.779Z,17.30
2017-05-12T18:03:47.359Z,18.40
2017-05-12T18:26:06.330Z,18.10
2017-05-12T18:31:03.749Z,22.00
2017-05-12T19:33:01.227Z,27.90
2017-05-12T19:35:30.156Z,27.57
2017-05-12T19:37:59.083Z,28.33
2017-05-12T19:40:28.762Z,28.47
2017-05-12T19:42:57.677Z,29.13
2017-05-12T19:45:27.394Z,29.43
2017-05-12T19:47:56.756Z,30.80
2017-05-12T19:50:25.692Z,29.63
2017-05-12T19:52:55.389Z,30.43
2017-05-12T19:55:24.310Z,28.88
2017-05-12T19:57:53.259Z,31.70
2017-05-12T20:00:22.204Z,29.50
2017-05-12T20:02:51.123Z,30.97
2017-05-12T20:05:20.077Z,31.07
2017-05-12T20:07:49.010Z,29.23
2017-05-12T20:10:17.993Z,30.38
2017-05-12T20:12:46.930Z,30.63
2017-05-12T20:15:15.850Z,27.72
2017-05-12T20:17:44.809Z,28.10
2017-05-12T20:20:13.738Z,29.45
2017-05-12T20:22:42.713Z,29.23
2017-05-12T20:25:12.373Z,30.63
2017-05-12T20:27:41.294Z,32.18
2017-05-12T20:30:10.227Z,31.28
2017-05-12T20:32:39.166Z,30.42
2017-05-12T20:35:08.188Z,31.32
2017-05-12T20:57:26.260Z,28.45
2017-05-12T20:59:55.215Z,28.80
2017-05-12T21:04:52.616Z,30.20
2017-05-12T21:07:21.568Z,27.95
2017-05-12T21:14:47.466Z,29.20
2017-05-12T21:19:44.875Z,28.10
2017-05-12T21:22:13.817Z,26.52
2017-05-12T21:24:43.047Z,31.90
2017-05-12T21:27:12.729Z,30.90
2017-05-12T21:29:41.668Z,29.13
2017-05-12T21:32:10.607Z,30.53
2017-05-12T21:34:39.545Z,29.15
2017-05-12T21:37:08.501Z,30.26
2017-05-12T21:39:37.422Z,29.18
2017-05-12T21:42:07.097Z,31.67
2017-05-12T21:44:36.053Z,30.67
2017-05-12T21:47:04.992Z,31.05
2017-05-12T21:49:33.946Z,31.45
2017-05-12T21:52:02.867Z,32.60
2017-05-12T21:54:31.809Z,34.35
2017-05-12T21:57:00.773Z,33.12
2017-05-12T21:59:29.694Z,33.40
2017-05-12T22:01:58.634Z,32.47
2017-05-12T22:04:27.549Z,33.83
2017-05-12T22:06:56.469Z,32.60
2017-05-12T22:09:25.441Z,32.12
2017-05-12T22:11:54.381Z,30.97
2017-05-12T22:14:23.333Z,29.40
2017-05-12T22:16:53.009Z,32.13
2017-05-12T22:19:21.955Z,31.27
2017-05-12T22:21:50.888Z,29.78
2017-05-12T22:24:19.829Z,27.40
2017-05-12T22:26:48.831Z,27.95
2017-05-12T22:29:17.754Z,29.85
2017-05-12T22:31:46.697Z,30.22
2017-05-12T22:34:16.416Z,28.35
2017-05-12T22:36:46.086Z,27.50
2017-05-12T22:39:15.078Z,28.57
2017-05-12T22:41:44.022Z,28.85
2017-05-12T22:44:12.966Z,27.57
2017-05-12T22:46:41.905Z,28.80
2017-05-12T22:49:10.871Z,26.60
2017-05-12T22:51:39.790Z,25.90
2017-05-12T22:54:08.733Z,27.35
2017-05-12T22:56:37.679Z,27.37
2017-05-12T22:59:06.619Z,26.58
2017-05-12T23:01:35.560Z,25.18
2017-05-12T23:04:04.517Z,26.35
2017-05-12T23:06:33.434Z,27.45
2017-05-12T23:09:03.104Z,27.45
2017-05-12T23:11:32.054Z,24.78
2017-05-12T23:14:00.993Z,24.54
2017-05-12T23:16:29.910Z,26.34
2017-05-12T23:18:58.883Z,25.25
2017-05-12T23:21:27.798Z,24.43
2017-05-12T23:23:57.457Z,23.55
2017-05-12T23:26:26.424Z,24.60
2017-05-12T23:28:55.347Z,23.98
2017-05-12T23:31:24.271Z,22.03
2017-05-12T23:33:53.213Z,21.88
2017-05-12T23:36:22.138Z,21.92
2017-05-12T23:38:51.054Z,22.33
2017-05-12T23:41:20.032Z,22.32
2017-05-12T23:43:48.973Z,22.22
2017-05-12T23:46:17.910Z,20.37
2017-05-12T23:48:46.863Z,21.85
2017-05-12T23:51:15.800Z,19.72
2017-05-12T23:53:44.792Z,21.15
2017-05-12T23:56:13.777Z,22.75
2017-05-12T23:58:42.709Z,18.97
